Time;durP1;ratioP1;P1;durP2;ratioP2;P2;SDS_P1;SDS_P2;PMS_P1;PMS_P2;Temp;Humidity;BMP_temperature;BMP_pressure;BME280_temperature;BME280_humidity;BME280_pressure;Samples;Min_cycle;Max_cycle;Signal;HPM_P1;HPM_P2
2023/03/22 00:01:11;;;;;;;18.48;12.52;;;;;;;;;;4988465;28;20042;-76
2023/03/22 00:03:37;;;;;;;16.67;13.55;;;;;;;;;;4999490;28;20101;-76
2023/03/22 00:06:03;;;;;;;15.25;12.40;;;;;;;;;;5000032;28;20493;-77
2023/03/22 00:08:29;;;;;;;16.40;12.10;;;;;;;;;;4983249;28;20054;-77
2023/03/22 00:10:55;;;;;;;16.17;11.75;;;;;;;;;;5000271;28;20514;-76
2023/03/22 00:13:22;;;;;;;16.88;11.15;;;;;;;;;;4998738;28;20066;-76
2023/03/22 00:15:48;;;;;;;19.25;10.45;;;;;;;;;;4982109;28;20105;-76
2023/03/22 00:18:18;;;;;;;16.50;10.57;;;;;;;;;;4998253;28;20876;-76
2023/03/22 00:20:48;;;;;;;13.02;10.23;;;;;;;;;;4996437;28;20077;-76
2023/03/22 00:23:14;;;;;;;16.20;10.50;;;;;;;;;;4983502;28;20374;-77
2023/03/22 00:25:40;;;;;;;14.07;10.68;;;;;;;;;;4999293;28;20476;-77
2023/03/22 00:28:06;;;;;;;15.23;11.65;;;;;;;;;;4999255;28;20082;-76
2023/03/22 00:30:32;;;;;;;16.00;11.30;;;;;;;;;;4999353;28;20050;-76
2023/03/22 00:32:58;;;;;;;16.52;10.88;;;;;;;;;;4997448;28;20403;-76
2023/03/22 00:35:24;;;;;;;17.48;11.15;;;;;;;;;;4981753;28;20038;-77
2023/03/22 00:37:50;;;;;;;15.38;11.10;;;;;;;;;;4997740;28;20419;-77
2023/03/22 00:40:16;;;;;;;17.92;10.80;;;;;;;;;;4998298;28;20046;-76
2023/03/22 00:42:42;;;;;;;14.85;10.70;;;;;;;;;;4996825;28;20056;-76
2023/03/22 00:45:10;;;;;;;16.58;9.68;;;;;;;;;;4998882;28;20038;-75
2023/03/22 00:47:36;;;;;;;14.52;9.07;;;;;;;;;;4996268;28;20125;-75
2023/03/22 00:50:03;;;;;;;13.15;8.63;;;;;;;;;;4997231;28;20050;-76
2023/03/22 00:52:30;;;;;;;16.25;8.95;;;;;;;;;;4998005;28;20447;-77
2023/03/22 00:54:56;;;;;;;15.05;8.88;;;;;;;;;;4997085;28;20125;-76
2023/03/22 00:57:22;;;;;;;15.30;9.45;;;;;;;;;;5001085;28;20042;-76
2023/03/22 00:59:48;;;;;;;13.98;8.48;;;;;;;;;;5003672;28;20047;-76
2023/03/22 01:02:14;;;;;;;16.77;8.85;;;;;;;;;;5002303;28;20046;-77
2023/03/22 01:04:45;;;;;;;17.45;8.70;;;;;;;;;;5001134;28;20047;-76
2023/03/22 01:07:16;;;;;;;15.80;8.93;;;;;;;;;;5000234;28;20102;-76
2023/03/22 01:09:43;;;;;;;16.00;8.70;;;;;;;;;;4997683;28;20046;-77
2023/03/22 01:12:10;;;;;;;14.70;9.15;;;;;;;;;;4998071;28;20576;-77
2023/03/22 01:14:36;;;;;;;17.55;10.27;;;;;;;;;;5000387;28;20455;-77
2023/03/22 01:17:02;;;;;;;19.63;9.80;;;;;;;;;;4998673;28;20062;-78
2023/03/22 01:19:28;;;;;;;16.25;9.63;;;;;;;;;;4999419;28;20125;-78
2023/03/22 01:21:55;;;;;;;14.52;9.43;;;;;;;;;;4998569;28;20046;-75
2023/03/22 01:24:21;;;;;;;18.40;9.88;;;;;;;;;;4999646;28;20061;-77
2023/03/22 01:26:47;;;;;;;18.55;9.60;;;;;;;;;;4999060;28;20457;-77
2023/03/22 01:29:13;;;;;;;17.08;9.50;;;;;;;;;;4998933;28;20527;-77
2023/03/22 01:31:39;;;;;;;18.23;9.48;;;;;;;;;;4998569;28;20046;-77
2023/03/22 01:34:05;;;;;;;18.08;8.82;;;;;;;;;;4998014;28;20478;-77
2023/03/22 01:36:31;;;;;;;15.85;9.10;;;;;;;;;;4998284;28;20104;-76
2023/03/22 01:38:58;;;;;;;17.77;9.02;;;;;;;;;;4998468;28;20046;-76
2023/03/22 01:41:24;;;;;;;17.10;8.00;;;;;;;;;;4998468;28;20051;-77
2023/03/22 01:44:09;;;;;;;15.70;8.05;;;;;;;;;;4996950;28;20456;-77
2023/03/22 01:46:35;;;;;;;15.93;7.80;;;;;;;;;;4995936;28;20050;-75
2023/03/22 01:49:03;;;;;;;14.85;8.40;;;;;;;;;;4996211;28;20038;-75
2023/03/22 01:51:29;;;;;;;13.50;8.27;;;;;;;;;;4995952;28;20088;-76
2023/03/22 01:53:58;;;;;;;15.20;8.18;;;;;;;;;;4999886;28;20121;-76
2023/03/22 01:56:25;;;;;;;14.00;7.57;;;;;;;;;;5001681;28;20546;-76
2023/03/22 01:58:52;;;;;;;18.23;8.05;;;;;;;;;;5002611;28;20049;-76
2023/03/22 02:01:18;;;;;;;15.43;7.93;;;;;;;;;;5002099;28;20121;-76
2023/03/22 02:03:50;;;;;;;14.45;7.18;;;;;;;;;;5002944;28;20046;-77
2023/03/22 02:06:17;;;;;;;14.68;7.00;;;;;;;;;;5001753;28;20097;-77
2023/03/22 02:08:43;;;;;;;13.98;6.93;;;;;;;;;;5017737;28;20053;-78
2023/03/22 02:11:14;;;;;;;16.23;6.78;;;;;;;;;;5000754;28;20050;-77
2023/03/22 02:13:46;;;;;;;13.55;6.68;;;;;;;;;;4993645;28;20062;-77
2023/03/22 02:16:39;;;;;;;13.95;6.10;;;;;;;;;;5001127;28;20049;-77
2023/03/22 02:19:12;;;;;;;15.95;5.93;;;;;;;;;;4999180;28;20046;-77
2023/03/22 02:22:01;;;;;;;14.00;5.30;;;;;;;;;;4980997;28;20090;-77
2023/03/22 02:24:40;;;;;;;13.63;5.75;;;;;;;;;;4981033;28;20408;-77
2023/03/22 02:27:06;;;;;;;12.70;5.38;;;;;;;;;;4983409;28;20117;-76
2023/03/22 02:30:08;;;;;;;11.95;5.00;;;;;;;;;;5001209;28;20057;-77
2023/03/22 02:32:37;;;;;;;12.52;5.40;;;;;;;;;;4979644;28;20039;-77
2023/03/22 02:35:03;;;;;;;16.60;4.90;;;;;;;;;;4978190;28;20050;-76
2023/03/22 02:37:41;;;;;;;12.00;4.70;;;;;;;;;;4978256;28;20047;-76
2023/03/22 02:40:26;;;;;;;16.35;5.05;;;;;;;;;;4980316;28;20066;-77
2023/03/22 02:42:54;;;;;;;13.55;4.75;;;;;;;;;;4979678;28;20452;-77
2023/03/22 02:45:40;;;;;;;12.25;5.13;;;;;;;;;;4980545;28;20437;-77
2023/03/22 02:48:17;;;;;;;13.43;5.28;;;;;;;;;;4979492;28;20051;-76
2023/03/22 02:50:59;;;;;;;15.25;5.65;;;;;;;;;;4979099;28;20150;-76
2023/03/22 02:53:36;;;;;;;14.32;5.40;;;;;;;;;;4978888;28;20051;-78
2023/03/22 02:56:04;;;;;;;13.30;5.55;;;;;;;;;;4978003;28;20417;-76
2023/03/22 02:58:35;;;;;;;12.48;5.43;;;;;;;;;;4979466;28;20070;-77
2023/03/22 03:01:04;;;;;;;12.43;5.40;;;;;;;;;;4978549;28;20059;-77
2023/03/22 03:03:31;;;;;;;15.15;5.30;;;;;;;;;;4977436;28;20503;-77
2023/03/22 03:06:00;;;;;;;13.57;5.10;;;;;;;;;;4982347;28;20555;-77
2023/03/22 03:08:27;;;;;;;14.07;5.90;;;;;;;;;;4998249;28;20054;-76
2023/03/22 03:10:53;;;;;;;12.32;5.40;;;;;;;;;;4995029;28;20507;-76
2023/03/22 03:13:20;;;;;;;16.73;5.75;;;;;;;;;;4998330;28;20501;-76
2023/03/22 03:15:51;;;;;;;13.27;5.28;;;;;;;;;;4999058;28;20057;-75
2023/03/22 03:18:21;;;;;;;12.88;5.22;;;;;;;;;;4997479;28;20504;-76
2023/03/22 03:20:51;;;;;;;13.35;5.40;;;;;;;;;;4997413;28;20489;-77
2023/03/22 03:23:35;;;;;;;15.43;5.35;;;;;;;;;;5000788;28;20489;-77
2023/03/22 03:26:01;;;;;;;14.25;5.38;;;;;;;;;;5005837;28;20055;-77
2023/03/22 03:28:49;;;;;;;12.40;4.70;;;;;;;;;;5002096;28;20039;-77
2023/03/22 03:31:34;;;;;;;15.07;5.05;;;;;;;;;;5001252;28;20100;-76
2023/03/22 03:34:19;;;;;;;12.95;5.22;;;;;;;;;;5000489;28;20054;-77
2023/03/22 03:36:57;;;;;;;14.93;5.47;;;;;;;;;;5000440;28;20528;-77
2023/03/22 03:39:25;;;;;;;10.07;4.95;;;;;;;;;;5000962;28;20554;-77
2023/03/22 03:41:52;;;;;;;13.45;5.22;;;;;;;;;;4999749;28;20042;-77
2023/03/22 03:44:18;;;;;;;15.93;5.43;;;;;;;;;;4999965;28;20046;-77
2023/03/22 03:46:45;;;;;;;11.50;5.05;;;;;;;;;;4999372;28;20493;-77
2023/03/22 03:49:12;;;;;;;12.65;4.93;;;;;;;;;;5017070;28;20042;-77
2023/03/22 03:52:08;;;;;;;11.07;4.32;;;;;;;;;;5000681;28;20500;-77
2023/03/22 03:54:34;;;;;;;10.93;4.70;;;;;;;;;;4995940;28;20393;-77
2023/03/22 03:57:00;;;;;;;15.57;4.80;;;;;;;;;;5000925;28;20133;-75
2023/03/22 03:59:27;;;;;;;13.23;4.60;;;;;;;;;;5000589;28;20061;-76
2023/03/22 04:01:53;;;;;;;13.23;4.53;;;;;;;;;;4998701;28;20046;-76
2023/03/22 04:04:29;;;;;;;14.40;4.35;;;;;;;;;;5000402;28;20472;-76
2023/03/22 04:06:56;;;;;;;11.07;3.90;;;;;;;;;;4997043;28;20100;-77
2023/03/22 04:09:27;;;;;;;12.05;4.13;;;;;;;;;;5000453;28;20038;-77
2023/03/22 04:11:56;;;;;;;11.57;4.32;;;;;;;;;;4998755;28;20121;-75
2023/03/22 04:14:23;;;;;;;12.98;4.30;;;;;;;;;;4998141;28;20053;-76
2023/03/22 04:16:49;;;;;;;10.30;4.05;;;;;;;;;;4996988;28;20054;-76
2023/03/22 04:19:15;;;;;;;11.70;3.65;;;;;;;;;;5000387;28;20065;-76
2023/03/22 04:21:41;;;;;;;12.73;4.20;;;;;;;;;;4996342;28;20073;-76
2023/03/22 04:24:08;;;;;;;13.55;4.03;;;;;;;;;;4994065;28;20096;-76
2023/03/22 04:26:34;;;;;;;9.40;4.53;;;;;;;;;;4996508;28;20519;-77
2023/03/22 04:29:01;;;;;;;13.02;5.25;;;;;;;;;;4999317;28;20127;-77
2023/03/22 04:31:31;;;;;;;11.77;6.07;;;;;;;;;;5000092;28;20046;-76
2023/03/22 04:34:04;;;;;;;15.13;6.00;;;;;;;;;;5000031;28;20400;-76
2023/03/22 04:36:35;;;;;;;14.52;7.38;;;;;;;;;;4998542;28;20101;-77
2023/03/22 04:39:04;;;;;;;19.48;7.95;;;;;;;;;;4999068;28;20053;-77
2023/03/22 04:41:31;;;;;;;15.07;8.38;;;;;;;;;;4999300;28;20448;-76
2023/03/22 04:44:01;;;;;;;18.77;9.80;;;;;;;;;;5000772;28;20396;-76
2023/03/22 04:46:27;;;;;;;17.83;9.07;;;;;;;;;;4999846;28;20070;-76
2023/03/22 04:48:53;;;;;;;15.88;9.50;;;;;;;;;;4999901;28;20042;-77
2023/03/22 04:51:20;;;;;;;17.05;11.13;;;;;;;;;;4998296;28;20109;-77
2023/03/22 04:53:46;;;;;;;17.27;11.40;;;;;;;;;;4999199;28;20046;-77
2023/03/22 04:56:12;;;;;;;20.23;11.05;;;;;;;;;;4996904;28;20046;-77
2023/03/22 04:58:39;;;;;;;19.98;12.60;;;;;;;;;;4997105;28;20045;-77
2023/03/22 05:01:06;;;;;;;19.48;12.80;;;;;;;;;;5000634;28;20046;-77
2023/03/22 05:03:32;;;;;;;18.02;11.98;;;;;;;;;;4998770;28;20050;-76
2023/03/22 05:05:59;;;;;;;21.13;13.35;;;;;;;;;;4998268;28;20074;-77
2023/03/22 05:08:27;;;;;;;18.48;12.15;;;;;;;;;;4999082;28;20416;-77
2023/03/22 05:10:54;;;;;;;22.20;13.60;;;;;;;;;;4998405;28;20129;-77
2023/03/22 05:13:21;;;;;;;21.65;14.07;;;;;;;;;;5000249;28;20081;-76
2023/03/22 05:15:48;;;;;;;19.08;12.90;;;;;;;;;;4999752;28;20050;-77
2023/03/22 05:18:14;;;;;;;20.20;13.65;;;;;;;;;;4999578;28;20551;-76
2023/03/22 05:20:44;;;;;;;21.52;13.88;;;;;;;;;;4999640;28;20046;-76
2023/03/22 05:23:10;;;;;;;17.05;14.20;;;;;;;;;;5000304;28;20046;-77
2023/03/22 05:25:37;;;;;;;22.92;13.65;;;;;;;;;;4997952;28;20456;-76
2023/03/22 05:28:03;;;;;;;21.45;13.98;;;;;;;;;;5000212;28;20050;-77
2023/03/22 05:30:30;;;;;;;20.63;14.02;;;;;;;;;;5003837;28;20054;-77
2023/03/22 05:33:01;;;;;;;19.63;14.32;;;;;;;;;;5001310;28;20074;-76
2023/03/22 05:35:28;;;;;;;20.45;13.60;;;;;;;;;;5015138;28;20046;-76
2023/03/22 05:37:54;;;;;;;21.50;14.55;;;;;;;;;;5019553;28;20043;-76
2023/03/22 05:40:20;;;;;;;18.40;13.75;;;;;;;;;;5016819;28;20395;-76
2023/03/22 05:42:46;;;;;;;20.05;13.20;;;;;;;;;;5014569;28;20089;-76
2023/03/22 05:45:12;;;;;;;19.75;13.70;;;;;;;;;;5013592;28;20061;-76
2023/03/22 05:47:38;;;;;;;17.80;12.63;;;;;;;;;;5010433;28;20102;-77
2023/03/22 05:50:06;;;;;;;18.05;13.32;;;;;;;;;;4997095;28;20153;-76
2023/03/22 05:52:32;;;;;;;20.33;13.73;;;;;;;;;;5011448;28;20046;-76
2023/03/22 05:54:58;;;;;;;18.83;13.50;;;;;;;;;;5010968;28;20058;-77
2023/03/22 05:57:25;;;;;;;21.30;13.23;;;;;;;;;;5010494;28;20038;-76
2023/03/22 05:59:52;;;;;;;19.33;13.52;;;;;;;;;;5002607;28;20100;-76
2023/03/22 06:02:20;;;;;;;20.48;13.43;;;;;;;;;;5002102;28;20049;-76
2023/03/22 06:04:46;;;;;;;20.13;12.73;;;;;;;;;;5002622;28;20057;-77
2023/03/22 06:07:13;;;;;;;19.38;12.88;;;;;;;;;;5001251;28;20051;-77
2023/03/22 06:09:40;;;;;;;22.17;12.90;;;;;;;;;;5004380;28;20038;-77
2023/03/22 06:12:06;;;;;;;18.75;12.88;;;;;;;;;;5006200;28;20046;-77
2023/03/22 06:14:32;;;;;;;19.13;12.55;;;;;;;;;;5005746;28;20084;-78
2023/03/22 06:16:58;;;;;;;22.90;12.80;;;;;;;;;;5000055;28;20053;-77
2023/03/22 06:19:24;;;;;;;16.95;12.57;;;;;;;;;;5004834;28;20042;-76
2023/03/22 06:21:51;;;;;;;19.30;11.63;;;;;;;;;;5003060;28;20050;-77
2023/03/22 06:24:18;;;;;;;16.35;11.90;;;;;;;;;;4997611;28;20093;-76
2023/03/22 06:26:44;;;;;;;21.65;11.75;;;;;;;;;;4999902;28;20042;-76
2023/03/22 06:29:10;;;;;;;16.90;11.95;;;;;;;;;;4997556;28;20121;-76
2023/03/22 06:31:37;;;;;;;17.70;11.70;;;;;;;;;;4999660;28;20038;-77
2023/03/22 06:34:03;;;;;;;18.23;11.82;;;;;;;;;;5000917;28;20042;-76
2023/03/22 06:36:30;;;;;;;17.15;11.15;;;;;;;;;;5000147;28;20057;-76
2023/03/22 06:38:59;;;;;;;16.02;11.15;;;;;;;;;;5001250;28;20050;-77
2023/03/22 06:41:26;;;;;;;16.83;11.15;;;;;;;;;;5000678;28;20045;-76
2023/03/22 06:43:52;;;;;;;17.70;11.13;;;;;;;;;;5001221;28;20038;-77
2023/03/22 06:46:18;;;;;;;18.10;11.05;;;;;;;;;;4999556;28;20050;-77
2023/03/22 06:48:44;;;;;;;16.42;10.13;;;;;;;;;;5000782;28;20043;-78
2023/03/22 06:51:10;;;;;;;15.52;10.15;;;;;;;;;;4991823;28;20133;-77
2023/03/22 06:53:36;;;;;;;17.00;10.40;;;;;;;;;;5001024;28;20523;-77
2023/03/22 06:56:03;;;;;;;16.35;9.82;;;;;;;;;;4999753;28;20050;-77
2023/03/22 06:58:29;;;;;;;15.75;9.40;;;;;;;;;;4999319;28;20046;-78
2023/03/22 07:00:55;;;;;;;15.18;9.55;;;;;;;;;;5000098;28;20103;-77
2023/03/22 07:03:22;;;;;;;14.95;9.02;;;;;;;;;;4978604;28;20110;-76
2023/03/22 07:05:48;;;;;;;17.23;8.73;;;;;;;;;;4999356;28;20057;-77
2023/03/22 07:08:15;;;;;;;13.45;8.20;;;;;;;;;;5000319;28;20446;-77
2023/03/22 07:10:42;;;;;;;14.48;8.55;;;;;;;;;;5000137;28;20121;-76
2023/03/22 07:13:09;;;;;;;14.63;7.93;;;;;;;;;;4997933;28;20058;-78
2023/03/22 07:15:36;;;;;;;16.42;7.97;;;;;;;;;;4998663;28;20054;-77
2023/03/22 07:18:02;;;;;;;13.45;8.57;;;;;;;;;;4998325;28;20077;-77
2023/03/22 07:20:29;;;;;;;14.13;8.20;;;;;;;;;;4999344;28;20039;-77
2023/03/22 07:22:55;;;;;;;12.50;7.50;;;;;;;;;;4976367;28;20061;-76
2023/03/22 07:25:21;;;;;;;11.93;7.20;;;;;;;;;;4989021;28;20046;-77
2023/03/22 07:27:47;;;;;;;13.32;7.20;;;;;;;;;;4996448;28;20099;-78
2023/03/22 07:30:13;;;;;;;13.90;7.00;;;;;;;;;;5001859;28;20105;-76
2023/03/22 07:32:40;;;;;;;11.70;6.97;;;;;;;;;;5000887;28;20134;-76
2023/03/22 07:35:06;;;;;;;12.77;6.70;;;;;;;;;;4999137;28;20038;-77
2023/03/22 07:37:32;;;;;;;10.80;6.40;;;;;;;;;;4999357;28;20050;-77
2023/03/22 07:39:58;;;;;;;14.88;6.97;;;;;;;;;;4998904;28;20093;-76
2023/03/22 07:42:25;;;;;;;15.93;7.03;;;;;;;;;;4999764;28;20045;-77
2023/03/22 07:44:51;;;;;;;14.07;6.70;;;;;;;;;;5001003;28;20077;-77
2023/03/22 07:47:17;;;;;;;15.25;7.28;;;;;;;;;;5001495;28;20415;-76
2023/03/22 07:49:43;;;;;;;12.70;6.22;;;;;;;;;;4998242;28;20356;-76
2023/03/22 07:52:09;;;;;;;13.23;5.93;;;;;;;;;;5000258;28;20140;-76
2023/03/22 07:54:35;;;;;;;11.63;6.20;;;;;;;;;;4999268;28;20428;-77
2023/03/22 07:57:01;;;;;;;10.43;5.70;;;;;;;;;;4997788;28;20050;-78
2023/03/22 07:59:28;;;;;;;16.40;5.72;;;;;;;;;;4997415;28;20046;-76
2023/03/22 08:01:54;;;;;;;13.63;5.53;;;;;;;;;;4998702;28;20121;-75
2023/03/22 08:04:21;;;;;;;13.10;5.55;;;;;;;;;;4996826;28;20058;-77
2023/03/22 08:06:48;;;;;;;14.77;5.72;;;;;;;;;;4997685;28;20137;-77
2023/03/22 08:09:14;;;;;;;12.20;5.72;;;;;;;;;;4996601;28;20441;-77
2023/03/22 08:11:40;;;;;;;13.10;4.85;;;;;;;;;;4990610;28;20408;-77
2023/03/22 08:14:07;;;;;;;11.85;5.00;;;;;;;;;;4996689;28;20082;-77
2023/03/22 08:16:34;;;;;;;13.32;5.03;;;;;;;;;;5001525;28;20058;-76
2023/03/22 08:19:00;;;;;;;13.70;5.32;;;;;;;;;;4996340;28;20050;-76
2023/03/22 08:21:26;;;;;;;15.02;5.18;;;;;;;;;;4996305;28;20046;-77
2023/03/22 08:23:53;;;;;;;14.13;5.13;;;;;;;;;;4995246;28;20454;-77
2023/03/22 08:26:19;;;;;;;13.80;4.88;;;;;;;;;;4988593;28;20117;-76
2023/03/22 08:28:45;;;;;;;11.77;5.00;;;;;;;;;;4997431;28;20128;-78
2023/03/22 08:31:15;;;;;;;12.48;4.57;;;;;;;;;;4997583;28;20053;-77
2023/03/22 08:33:42;;;;;;;11.90;4.60;;;;;;;;;;4996882;28;20086;-76
2023/03/22 08:36:09;;;;;;;14.73;4.20;;;;;;;;;;4998669;28;20301;-77
2023/03/22 08:38:35;;;;;;;14.23;5.18;;;;;;;;;;4998552;28;20054;-77
2023/03/22 08:41:02;;;;;;;11.60;4.32;;;;;;;;;;4996309;28;20627;-77
2023/03/22 08:43:28;;;;;;;12.20;4.90;;;;;;;;;;4995917;28;20038;-77
2023/03/22 08:45:54;;;;;;;13.85;4.45;;;;;;;;;;4992065;28;20515;-76
2023/03/22 08:48:20;;;;;;;12.52;4.28;;;;;;;;;;4996353;28;20038;-77
2023/03/22 08:50:46;;;;;;;12.65;4.40;;;;;;;;;;4998403;28;20046;-77
2023/03/22 08:53:12;;;;;;;12.88;3.80;;;;;;;;;;4997491;28;20078;-77
2023/03/22 08:55:43;;;;;;;12.10;4.43;;;;;;;;;;4996034;28;20049;-76
2023/03/22 08:58:10;;;;;;;9.50;3.65;;;;;;;;;;4989389;28;20038;-77
2023/03/22 09:00:37;;;;;;;12.90;3.67;;;;;;;;;;4997660;28;20043;-77
2023/03/22 09:03:04;;;;;;;11.38;3.85;;;;;;;;;;4998285;28;20039;-78
2023/03/22 09:05:30;;;;;;;9.57;3.90;;;;;;;;;;5002138;28;20093;-78
2023/03/22 09:07:56;;;;;;;10.80;3.72;;;;;;;;;;4999016;28;20034;-76
2023/03/22 09:10:22;;;;;;;13.30;4.28;;;;;;;;;;5000711;28;20053;-76
2023/03/22 09:12:49;;;;;;;13.70;3.85;;;;;;;;;;5001018;28;20042;-78
2023/03/22 09:15:15;;;;;;;13.30;4.00;;;;;;;;;;5002500;28;20123;-77
2023/03/22 09:17:41;;;;;;;13.00;3.90;;;;;;;;;;5001544;28;20042;-77
2023/03/22 09:20:07;;;;;;;14.48;4.07;;;;;;;;;;5002163;28;20048;-78
2023/03/22 09:22:33;;;;;;;10.25;3.92;;;;;;;;;;5002103;28;20069;-76
2023/03/22 09:25:00;;;;;;;15.57;3.55;;;;;;;;;;4994387;28;20469;-77
2023/03/22 09:27:26;;;;;;;11.25;3.70;;;;;;;;;;4998180;28;20078;-76
2023/03/22 09:29:52;;;;;;;14.25;3.53;;;;;;;;;;5001452;28;20166;-78
2023/03/22 09:32:18;;;;;;;12.23;3.58;;;;;;;;;;5000323;28;20049;-76
2023/03/22 09:34:45;;;;;;;9.93;3.83;;;;;;;;;;5001429;28;20046;-76
2023/03/22 09:37:11;;;;;;;11.35;3.42;;;;;;;;;;4997330;28;20047;-76
2023/03/22 09:39:38;;;;;;;12.50;4.05;;;;;;;;;;4995679;28;20042;-76
2023/03/22 09:42:14;;;;;;;14.57;3.45;;;;;;;;;;4991630;28;20051;-75
2023/03/22 09:44:42;;;;;;;14.18;3.67;;;;;;;;;;4994950;28;20046;-76
2023/03/22 09:47:15;;;;;;;14.07;3.88;;;;;;;;;;5004031;28;20423;-76
2023/03/22 09:49:45;;;;;;;10.10;3.55;;;;;;;;;;4998207;28;20404;-76
2023/03/22 09:52:15;;;;;;;11.02;3.70;;;;;;;;;;4990994;28;20062;-77
2023/03/22 09:54:42;;;;;;;12.15;3.50;;;;;;;;;;5000431;28;20077;-77
2023/03/22 09:57:22;;;;;;;12.50;3.75;;;;;;;;;;4992605;28;20104;-78
2023/03/22 10:00:10;;;;;;;14.85;3.88;;;;;;;;;;4993023;28;20060;-77
2023/03/22 10:02:36;;;;;;;10.18;3.80;;;;;;;;;;5005191;28;20076;-79
2023/03/22 10:05:05;;;;;;;10.45;3.17;;;;;;;;;;5006014;28;20407;-80
2023/03/22 10:07:43;;;;;;;10.00;3.40;;;;;;;;;;5006622;28;20054;-79
2023/03/22 10:10:17;;;;;;;10.38;3.50;;;;;;;;;;5003199;28;20105;-78
2023/03/22 10:12:53;;;;;;;14.32;3.42;;;;;;;;;;5003158;28;20078;-76
2023/03/22 10:15:23;;;;;;;13.63;3.88;;;;;;;;;;5003296;28;20050;-77
2023/03/22 10:17:51;;;;;;;11.25;3.25;;;;;;;;;;5001451;28;20046;-79
2023/03/22 10:20:28;;;;;;;11.13;3.75;;;;;;;;;;4998009;28;20130;-77
2023/03/22 10:22:55;;;;;;;11.45;3.83;;;;;;;;;;5004332;28;20049;-78
2023/03/22 10:25:23;;;;;;;11.15;3.80;;;;;;;;;;5003282;28;20477;-78
2023/03/22 10:27:51;;;;;;;11.32;3.50;;;;;;;;;;5001041;28;20481;-78
2023/03/22 10:30:21;;;;;;;12.38;4.20;;;;;;;;;;4991929;28;20042;-79
2023/03/22 10:32:52;;;;;;;10.25;4.00;;;;;;;;;;4985887;28;20034;-78
2023/03/22 10:35:18;;;;;;;11.48;4.05;;;;;;;;;;5002964;28;20046;-77
2023/03/22 10:37:46;;;;;;;10.43;3.95;;;;;;;;;;5001122;28;20042;-77
2023/03/22 10:40:20;;;;;;;13.57;4.45;;;;;;;;;;4995341;28;20046;-77
2023/03/22 10:42:51;;;;;;;10.32;4.07;;;;;;;;;;4999120;28;20133;-77
2023/03/22 10:45:17;;;;;;;14.40;4.13;;;;;;;;;;5003683;28;20057;-77
2023/03/22 10:47:48;;;;;;;16.17;4.00;;;;;;;;;;5001620;28;20377;-79
2023/03/22 10:50:35;;;;;;;14.85;3.97;;;;;;;;;;4999468;28;20105;-77
2023/03/22 10:53:07;;;;;;;12.52;4.30;;;;;;;;;;4999150;28;20050;-77
2023/03/22 10:55:38;;;;;;;12.30;3.70;;;;;;;;;;5000462;28;20492;-78
2023/03/22 10:58:17;;;;;;;12.10;3.70;;;;;;;;;;5000249;28;20069;-77
2023/03/22 11:00:45;;;;;;;12.52;3.72;;;;;;;;;;5000857;28;20049;-77
2023/03/22 11:03:24;;;;;;;12.57;4.32;;;;;;;;;;5002122;28;20042;-77
2023/03/22 11:05:58;;;;;;;13.18;3.97;;;;;;;;;;5001131;28;20049;-78
2023/03/22 11:08:24;;;;;;;12.15;3.55;;;;;;;;;;5003106;28;20042;-78
2023/03/22 11:10:58;;;;;;;12.35;3.78;;;;;;;;;;4999952;28;20039;-76
2023/03/22 11:13:24;;;;;;;12.73;3.95;;;;;;;;;;5001956;28;20100;-77
2023/03/22 11:15:52;;;;;;;10.93;3.88;;;;;;;;;;5000385;28;20118;-77
2023/03/22 11:18:19;;;;;;;14.50;4.22;;;;;;;;;;5000832;28;20038;-77
2023/03/22 11:20:59;;;;;;;11.50;3.78;;;;;;;;;;5001350;28;20117;-77
2023/03/22 11:23:27;;;;;;;12.63;4.18;;;;;;;;;;4994167;28;20049;-77
2023/03/22 11:25:55;;;;;;;11.93;3.90;;;;;;;;;;4999983;28;20050;-78
2023/03/22 11:28:33;;;;;;;9.70;4.60;;;;;;;;;;4999758;28;20079;-76
2023/03/22 11:31:04;;;;;;;12.30;4.15;;;;;;;;;;4988635;28;20093;-77
2023/03/22 11:33:31;;;;;;;13.82;4.55;;;;;;;;;;5002661;28;20039;-77
2023/03/22 11:35:58;;;;;;;12.02;4.07;;;;;;;;;;5000893;28;20085;-76
2023/03/22 11:38:38;;;;;;;12.75;4.45;;;;;;;;;;4999329;28;20081;-77
2023/03/22 11:41:06;;;;;;;12.50;4.22;;;;;;;;;;5002741;28;20042;-78
2023/03/22 11:43:32;;;;;;;14.35;4.53;;;;;;;;;;5005753;28;20054;-77
2023/03/22 11:45:59;;;;;;;11.32;4.30;;;;;;;;;;5003174;28;20053;-78
2023/03/22 11:48:27;;;;;;;12.90;4.03;;;;;;;;;;5002546;28;20046;-79
2023/03/22 11:50:55;;;;;;;10.77;3.92;;;;;;;;;;5001833;28;20047;-78
2023/03/22 11:53:24;;;;;;;11.25;3.92;;;;;;;;;;4995495;28;20043;-78
2023/03/22 11:55:52;;;;;;;9.70;3.85;;;;;;;;;;5002051;28;20097;-78
2023/03/22 11:58:28;;;;;;;10.77;4.38;;;;;;;;;;5014780;28;20034;-77
2023/03/22 12:00:57;;;;;;;12.85;4.20;;;;;;;;;;5013849;28;20050;-77
2023/03/22 12:03:24;;;;;;;12.75;4.05;;;;;;;;;;5005839;28;20105;-77
2023/03/22 12:05:51;;;;;;;12.27;3.47;;;;;;;;;;5001549;28;20061;-79
2023/03/22 12:08:25;;;;;;;18.17;7.45;;;;;;;;;;5010059;28;20032;-77
2023/03/22 12:11:00;;;;;;;9.05;4.30;;;;;;;;;;5018551;28;20054;-78
2023/03/22 12:13:48;;;;;;;10.50;4.03;;;;;;;;;;5017587;28;20097;-77
2023/03/22 12:16:17;;;;;;;12.73;4.68;;;;;;;;;;5018251;28;20090;-80
2023/03/22 12:18:56;;;;;;;10.65;5.28;;;;;;;;;;5018230;28;20055;-78
2023/03/22 12:21:22;;;;;;;11.40;5.38;;;;;;;;;;5018339;28;20037;-80
2023/03/22 12:23:48;;;;;;;11.63;4.80;;;;;;;;;;5016305;28;20038;-79
2023/03/22 12:26:16;;;;;;;11.20;4.10;;;;;;;;;;5016154;28;20050;-78
2023/03/22 12:29:01;;;;;;;11.52;5.47;;;;;;;;;;5008460;28;20038;-79
2023/03/22 12:31:33;;;;;;;11.85;5.22;;;;;;;;;;5012431;28;20046;-79
2023/03/22 12:34:01;;;;;;;11.73;5.35;;;;;;;;;;5009462;28;20128;-79
2023/03/22 12:36:37;;;;;;;10.60;3.58;;;;;;;;;;5014006;28;20042;-79
2023/03/22 12:39:04;;;;;;;12.52;3.78;;;;;;;;;;5005781;28;20093;-78
2023/03/22 12:41:35;;;;;;;9.43;3.40;;;;;;;;;;5004342;28;20050;-79
2023/03/22 12:44:18;;;;;;;8.52;3.40;;;;;;;;;;5002833;28;20043;-79
2023/03/22 12:46:48;;;;;;;11.70;3.60;;;;;;;;;;5002059;28;20052;-78
2023/03/22 12:49:18;;;;;;;11.30;3.50;;;;;;;;;;4998870;28;20113;-78
2023/03/22 12:51:45;;;;;;;10.27;3.20;;;;;;;;;;4995389;28;20044;-80
2023/03/22 12:54:14;;;;;;;12.52;3.25;;;;;;;;;;5001466;28;20068;-78
2023/03/22 12:56:41;;;;;;;9.75;3.47;;;;;;;;;;4999786;28;20467;-78
2023/03/22 12:59:12;;;;;;;10.75;3.20;;;;;;;;;;4997919;28;20039;-79
2023/03/22 13:01:55;;;;;;;14.45;3.45;;;;;;;;;;5004610;28;20042;-78
2023/03/22 13:04:36;;;;;;;13.65;3.72;;;;;;;;;;4987946;28;20042;-78
2023/03/22 13:07:15;;;;;;;13.65;3.58;;;;;;;;;;5001473;28;20039;-78
2023/03/22 13:09:43;;;;;;;10.32;3.45;;;;;;;;;;5013757;28;20069;-77
2023/03/22 13:12:15;;;;;;;8.80;3.53;;;;;;;;;;5000112;28;20053;-78
2023/03/22 13:14:50;;;;;;;8.93;3.28;;;;;;;;;;4998813;28;20073;-77
2023/03/22 13:17:22;;;;;;;12.10;3.70;;;;;;;;;;5002738;28;20114;-78
2023/03/22 13:19:59;;;;;;;11.55;3.83;;;;;;;;;;5002981;28;20050;-78
2023/03/22 13:22:29;;;;;;;9.95;3.67;;;;;;;;;;5003611;28;20045;-77
2023/03/22 13:25:15;;;;;;;10.23;3.60;;;;;;;;;;4991161;28;20051;-78
2023/03/22 13:27:44;;;;;;;9.98;3.83;;;;;;;;;;4991148;28;20401;-78
2023/03/22 13:30:34;;;;;;;11.45;3.63;;;;;;;;;;5002234;28;20101;-79
2023/03/22 13:33:02;;;;;;;11.27;3.38;;;;;;;;;;4997721;28;20054;-78
2023/03/22 13:35:49;;;;;;;9.70;3.50;;;;;;;;;;4981783;28;20078;-77
2023/03/22 13:38:35;;;;;;;9.93;3.50;;;;;;;;;;4995375;28;20057;-78
2023/03/22 13:41:03;;;;;;;12.32;3.58;;;;;;;;;;4997702;28;20455;-78
2023/03/22 13:43:31;;;;;;;13.00;3.80;;;;;;;;;;4997765;28;20045;-77
2023/03/22 13:46:10;;;;;;;9.45;4.47;;;;;;;;;;5000669;28;20043;-78
2023/03/22 13:48:43;;;;;;;9.63;3.80;;;;;;;;;;5000052;28;20047;-78
2023/03/22 13:51:30;;;;;;;12.38;4.65;;;;;;;;;;5000489;28;20042;-78
2023/03/22 13:54:05;;;;;;;10.05;3.88;;;;;;;;;;4994203;28;20042;-77
2023/03/22 13:56:34;;;;;;;11.52;4.05;;;;;;;;;;4996338;28;20042;-78
2023/03/22 13:59:02;;;;;;;9.52;3.90;;;;;;;;;;4995607;28;20143;-78
2023/03/22 14:01:36;;;;;;;12.32;3.55;;;;;;;;;;4994573;28;20038;-78
2023/03/22 14:04:06;;;;;;;9.30;3.60;;;;;;;;;;4995364;28;20053;-77
2023/03/22 14:06:38;;;;;;;12.95;4.20;;;;;;;;;;4991077;28;20121;-77
2023/03/22 14:09:05;;;;;;;;;;;;;;;;;;4996680;28;20039;-78
2023/03/22 14:11:53;;;;;;;13.10;3.83;;;;;;;;;;5000175;28;19925;-78
2023/03/22 14:14:21;;;;;;;13.27;4.30;;;;;;;;;;4990245;28;20050;-78
2023/03/22 14:16:52;;;;;;;9.43;3.90;;;;;;;;;;5006077;28;20082;-79
2023/03/22 14:19:22;;;;;;;11.90;3.97;;;;;;;;;;4996709;28;20038;-79
2023/03/22 14:21:50;;;;;;;10.70;4.07;;;;;;;;;;4979413;28;20122;-78
2023/03/22 14:24:17;;;;;;;10.52;3.78;;;;;;;;;;4995011;28;20051;-77
2023/03/22 14:26:45;;;;;;;11.73;4.00;;;;;;;;;;5000418;28;20393;-78
2023/03/22 14:29:16;;;;;;;10.57;4.18;;;;;;;;;;4998162;28;20045;-77
2023/03/22 14:31:42;;;;;;;8.73;3.92;;;;;;;;;;5002478;28;20054;-78
2023/03/22 14:34:11;;;;;;;10.25;4.15;;;;;;;;;;4998724;28;20570;-77
2023/03/22 14:36:40;;;;;;;10.05;4.05;;;;;;;;;;4996665;28;20045;-76
2023/03/22 14:39:19;;;;;;;11.55;4.88;;;;;;;;;;5016185;28;20038;-78
2023/03/22 14:42:05;;;;;;;12.15;4.20;;;;;;;;;;5004298;28;20114;-78